METAR UND TAF INFORMATION
EDAH 231550Z 02006KT 340V100 CAVOK 25/17 Q1020

 FLUGHAFENKARTE

 RUNWAY INFORMATION
Runway 10 Runway length 7562 ft Runway width 115 ft
Runway elevation 77 ft Runway displaced threshold 0 ft Runway heading 106
Runway 28 Runway length 7562 ft Runway width 115 ft
Runway elevation 89 ft Runway displaced threshold 0 ft Runway heading 286
Runway 10R Runway length 1969 ft Runway width 98 ft
Runway elevation 0 ft Runway displaced threshold 0 ft Runway heading 106
Runway 28L Runway length 1969 ft Runway width 98 ft
Runway elevation 0 ft Runway displaced threshold 0 ft Runway heading 286

 AIRPORT FREQUENCIES
Type AFIS Name BERLIN INF Frequency 132.65 MHZ
Type INFO Name INFO Frequency 132.825 MHZ
Type TWR Name TWR Frequency 132.825 MHZ

 AIRPORT NEAR NAVIGATION AIDS
Type NDB Name Heringsdorf Frequency 330 KHZ